sensor_id;sensor_type;location;lat;lon;timestamp;P1;durP1;ratioP1;P2;durP2;ratioP2
8656;SDS011;4366;50.764;7.184;2024-01-25T00:03:03;6.40;;;2.90;;
8656;SDS011;4366;50.764;7.184;2024-01-25T00:08:08;8.70;;;3.10;;
8656;SDS011;4366;50.764;7.184;2024-01-25T00:13:14;11.53;;;4.23;;
8656;SDS011;4366;50.764;7.184;2024-01-25T00:18:16;10.57;;;3.07;;
8656;SDS011;4366;50.764;7.184;2024-01-25T00:23:17;13.17;;;3.40;;
8656;SDS011;4366;50.764;7.184;2024-01-25T00:28:19;14.90;;;4.13;;
8656;SDS011;4366;50.764;7.184;2024-01-25T00:33:23;13.07;;;3.13;;
8656;SDS011;4366;50.764;7.184;2024-01-25T00:38:25;14.23;;;3.50;;
8656;SDS011;4366;50.764;7.184;2024-01-25T00:43:28;12.00;;;3.00;;
8656;SDS011;4366;50.764;7.184;2024-01-25T00:48:30;11.10;;;3.67;;
8656;SDS011;4366;50.764;7.184;2024-01-25T00:53:32;9.53;;;2.97;;
8656;SDS011;4366;50.764;7.184;2024-01-25T00:58:35;9.70;;;3.33;;
8656;SDS011;4366;50.764;7.184;2024-01-25T01:03:37;11.87;;;3.93;;
8656;SDS011;4366;50.764;7.184;2024-01-25T01:08:39;10.67;;;3.40;;
8656;SDS011;4366;50.764;7.184;2024-01-25T01:13:41;10.37;;;3.50;;
8656;SDS011;4366;50.764;7.184;2024-01-25T01:18:43;10.00;;;3.20;;
8656;SDS011;4366;50.764;7.184;2024-01-25T01:23:45;11.43;;;3.30;;
8656;SDS011;4366;50.764;7.184;2024-01-25T01:28:47;17.90;;;3.63;;
8656;SDS011;4366;50.764;7.184;2024-01-25T01:33:49;10.37;;;3.27;;
8656;SDS011;4366;50.764;7.184;2024-01-25T01:38:51;10.73;;;3.40;;
8656;SDS011;4366;50.764;7.184;2024-01-25T01:43:53;13.17;;;3.47;;
8656;SDS011;4366;50.764;7.184;2024-01-25T01:48:55;15.70;;;4.10;;
8656;SDS011;4366;50.764;7.184;2024-01-25T01:53:57;9.43;;;3.03;;
8656;SDS011;4366;50.764;7.184;2024-01-25T01:59:03;12.23;;;3.80;;
8656;SDS011;4366;50.764;7.184;2024-01-25T02:04:06;12.23;;;4.17;;
8656;SDS011;4366;50.764;7.184;2024-01-25T02:09:08;10.97;;;4.23;;
8656;SDS011;4366;50.764;7.184;2024-01-25T02:14:11;11.73;;;3.57;;
8656;SDS011;4366;50.764;7.184;2024-01-25T02:19:13;8.57;;;3.20;;
8656;SDS011;4366;50.764;7.184;2024-01-25T02:24:15;11.07;;;3.93;;
8656;SDS011;4366;50.764;7.184;2024-01-25T02:29:17;17.20;;;3.93;;
8656;SDS011;4366;50.764;7.184;2024-01-25T02:34:18;13.60;;;3.97;;
8656;SDS011;4366;50.764;7.184;2024-01-25T02:39:20;10.53;;;3.40;;
8656;SDS011;4366;50.764;7.184;2024-01-25T02:44:22;8.37;;;3.03;;
8656;SDS011;4366;50.764;7.184;2024-01-25T02:49:24;10.23;;;3.57;;
8656;SDS011;4366;50.764;7.184;2024-01-25T02:54:26;10.87;;;3.60;;
8656;SDS011;4366;50.764;7.184;2024-01-25T02:59:29;16.17;;;3.80;;
8656;SDS011;4366;50.764;7.184;2024-01-25T03:04:30;9.50;;;3.40;;
8656;SDS011;4366;50.764;7.184;2024-01-25T03:09:32;13.00;;;3.53;;
8656;SDS011;4366;50.764;7.184;2024-01-25T03:14:34;10.60;;;3.90;;
8656;SDS011;4366;50.764;7.184;2024-01-25T03:19:36;11.67;;;3.60;;
8656;SDS011;4366;50.764;7.184;2024-01-25T03:24:39;17.07;;;3.83;;
8656;SDS011;4366;50.764;7.184;2024-01-25T03:29:41;7.50;;;3.23;;
8656;SDS011;4366;50.764;7.184;2024-01-25T03:34:44;13.97;;;4.03;;
8656;SDS011;4366;50.764;7.184;2024-01-25T03:39:46;9.50;;;3.20;;
8656;SDS011;4366;50.764;7.184;2024-01-25T03:44:48;15.40;;;3.93;;
8656;SDS011;4366;50.764;7.184;2024-01-25T03:49:50;11.73;;;3.97;;
8656;SDS011;4366;50.764;7.184;2024-01-25T03:54:52;17.17;;;4.23;;
8656;SDS011;4366;50.764;7.184;2024-01-25T03:59:55;13.13;;;3.50;;
8656;SDS011;4366;50.764;7.184;2024-01-25T04:04:56;15.10;;;3.97;;
8656;SDS011;4366;50.764;7.184;2024-01-25T04:10:07;16.27;;;4.37;;
8656;SDS011;4366;50.764;7.184;2024-01-25T04:15:10;10.37;;;4.00;;
8656;SDS011;4366;50.764;7.184;2024-01-25T04:20:12;9.90;;;3.93;;
8656;SDS011;4366;50.764;7.184;2024-01-25T04:25:14;11.90;;;4.07;;
8656;SDS011;4366;50.764;7.184;2024-01-25T04:30:18;12.73;;;3.60;;
8656;SDS011;4366;50.764;7.184;2024-01-25T04:35:20;10.23;;;4.37;;
8656;SDS011;4366;50.764;7.184;2024-01-25T04:40:22;9.17;;;3.03;;
8656;SDS011;4366;50.764;7.184;2024-01-25T04:45:24;10.93;;;4.03;;
8656;SDS011;4366;50.764;7.184;2024-01-25T04:50:25;19.00;;;4.27;;
8656;SDS011;4366;50.764;7.184;2024-01-25T04:55:28;14.70;;;4.20;;
8656;SDS011;4366;50.764;7.184;2024-01-25T05:00:30;9.50;;;3.40;;
8656;SDS011;4366;50.764;7.184;2024-01-25T05:05:31;12.80;;;4.13;;
8656;SDS011;4366;50.764;7.184;2024-01-25T05:10:33;16.07;;;4.53;;
8656;SDS011;4366;50.764;7.184;2024-01-25T05:15:35;13.07;;;4.00;;
8656;SDS011;4366;50.764;7.184;2024-01-25T05:20:37;14.47;;;3.93;;
8656;SDS011;4366;50.764;7.184;2024-01-25T05:25:39;11.83;;;4.20;;
8656;SDS011;4366;50.764;7.184;2024-01-25T05:30:41;10.83;;;4.20;;
8656;SDS011;4366;50.764;7.184;2024-01-25T05:35:43;9.97;;;3.93;;
8656;SDS011;4366;50.764;7.184;2024-01-25T05:40:45;12.30;;;3.67;;
8656;SDS011;4366;50.764;7.184;2024-01-25T05:45:47;14.00;;;4.20;;
8656;SDS011;4366;50.764;7.184;2024-01-25T05:50:52;12.33;;;4.57;;
8656;SDS011;4366;50.764;7.184;2024-01-25T05:55:54;8.83;;;3.57;;
8656;SDS011;4366;50.764;7.184;2024-01-25T06:00:56;11.27;;;3.87;;
8656;SDS011;4366;50.764;7.184;2024-01-25T06:05:58;11.63;;;4.50;;
8656;SDS011;4366;50.764;7.184;2024-01-25T06:11:06;8.83;;;4.20;;
8656;SDS011;4366;50.764;7.184;2024-01-25T06:16:15;13.57;;;4.07;;
8656;SDS011;4366;50.764;7.184;2024-01-25T06:21:17;13.27;;;4.30;;
8656;SDS011;4366;50.764;7.184;2024-01-25T06:26:19;9.17;;;4.00;;
8656;SDS011;4366;50.764;7.184;2024-01-25T06:31:21;9.17;;;4.00;;
8656;SDS011;4366;50.764;7.184;2024-01-25T06:36:22;11.23;;;3.87;;
8656;SDS011;4366;50.764;7.184;2024-01-25T06:41:25;10.70;;;4.27;;
8656;SDS011;4366;50.764;7.184;2024-01-25T06:46:27;11.57;;;4.63;;
8656;SDS011;4366;50.764;7.184;2024-01-25T06:51:29;9.77;;;4.00;;
8656;SDS011;4366;50.764;7.184;2024-01-25T06:56:31;10.63;;;3.87;;
8656;SDS011;4366;50.764;7.184;2024-01-25T07:01:34;9.47;;;3.47;;
8656;SDS011;4366;50.764;7.184;2024-01-25T07:06:36;16.57;;;4.73;;
8656;SDS011;4366;50.764;7.184;2024-01-25T07:11:38;9.03;;;3.93;;
8656;SDS011;4366;50.764;7.184;2024-01-25T07:16:40;10.20;;;4.90;;
8656;SDS011;4366;50.764;7.184;2024-01-25T07:21:42;14.63;;;4.93;;
8656;SDS011;4366;50.764;7.184;2024-01-25T07:26:47;10.10;;;4.13;;
8656;SDS011;4366;50.764;7.184;2024-01-25T07:31:51;10.73;;;4.37;;
8656;SDS011;4366;50.764;7.184;2024-01-25T07:36:56;9.10;;;3.90;;
8656;SDS011;4366;50.764;7.184;2024-01-25T07:41:58;11.17;;;4.40;;
8656;SDS011;4366;50.764;7.184;2024-01-25T07:46:59;12.20;;;4.13;;
8656;SDS011;4366;50.764;7.184;2024-01-25T07:52:01;13.77;;;4.07;;
8656;SDS011;4366;50.764;7.184;2024-01-25T07:57:03;10.40;;;4.37;;
8656;SDS011;4366;50.764;7.184;2024-01-25T08:02:05;10.07;;;3.70;;
8656;SDS011;4366;50.764;7.184;2024-01-25T08:07:10;13.07;;;4.63;;
8656;SDS011;4366;50.764;7.184;2024-01-25T08:12:12;15.27;;;5.33;;
8656;SDS011;4366;50.764;7.184;2024-01-25T08:17:14;11.00;;;4.67;;
8656;SDS011;4366;50.764;7.184;2024-01-25T08:22:16;13.60;;;5.00;;
8656;SDS011;4366;50.764;7.184;2024-01-25T08:27:24;13.90;;;5.67;;
8656;SDS011;4366;50.764;7.184;2024-01-25T08:32:26;8.83;;;4.67;;
8656;SDS011;4366;50.764;7.184;2024-01-25T08:37:28;8.47;;;4.20;;
8656;SDS011;4366;50.764;7.184;2024-01-25T08:42:30;13.23;;;4.87;;
8656;SDS011;4366;50.764;7.184;2024-01-25T08:47:31;16.93;;;5.20;;
8656;SDS011;4366;50.764;7.184;2024-01-25T08:52:33;13.50;;;5.23;;
8656;SDS011;4366;50.764;7.184;2024-01-25T08:57:38;9.50;;;4.63;;
8656;SDS011;4366;50.764;7.184;2024-01-25T09:02:43;16.47;;;4.80;;
8656;SDS011;4366;50.764;7.184;2024-01-25T09:07:45;13.53;;;4.77;;
8656;SDS011;4366;50.764;7.184;2024-01-25T09:12:47;13.33;;;4.67;;
8656;SDS011;4366;50.764;7.184;2024-01-25T09:17:49;10.30;;;4.77;;
8656;SDS011;4366;50.764;7.184;2024-01-25T09:22:51;14.30;;;4.73;;
8656;SDS011;4366;50.764;7.184;2024-01-25T09:27:55;11.57;;;4.80;;
8656;SDS011;4366;50.764;7.184;2024-01-25T09:32:58;14.83;;;6.00;;
8656;SDS011;4366;50.764;7.184;2024-01-25T09:38:01;14.93;;;5.17;;
8656;SDS011;4366;50.764;7.184;2024-01-25T09:43:04;16.83;;;5.50;;
8656;SDS011;4366;50.764;7.184;2024-01-25T09:48:06;16.17;;;5.53;;
8656;SDS011;4366;50.764;7.184;2024-01-25T09:53:15;10.60;;;4.57;;
8656;SDS011;4366;50.764;7.184;2024-01-25T09:58:20;15.33;;;5.97;;
8656;SDS011;4366;50.764;7.184;2024-01-25T10:03:22;11.80;;;5.33;;
8656;SDS011;4366;50.764;7.184;2024-01-25T10:08:23;12.10;;;4.47;;
8656;SDS011;4366;50.764;7.184;2024-01-25T10:13:26;14.30;;;4.60;;
8656;SDS011;4366;50.764;7.184;2024-01-25T10:18:29;14.70;;;4.43;;
8656;SDS011;4366;50.764;7.184;2024-01-25T10:23:31;14.00;;;4.07;;
8656;SDS011;4366;50.764;7.184;2024-01-25T10:28:34;15.03;;;4.73;;
8656;SDS011;4366;50.764;7.184;2024-01-25T10:33:37;11.60;;;4.17;;
8656;SDS011;4366;50.764;7.184;2024-01-25T10:38:43;12.93;;;4.70;;
8656;SDS011;4366;50.764;7.184;2024-01-25T10:43:46;9.83;;;4.10;;
8656;SDS011;4366;50.764;7.184;2024-01-25T10:48:48;9.50;;;4.00;;
8656;SDS011;4366;50.764;7.184;2024-01-25T10:53:51;8.70;;;4.13;;
8656;SDS011;4366;50.764;7.184;2024-01-25T10:58:55;12.70;;;5.07;;
8656;SDS011;4366;50.764;7.184;2024-01-25T11:03:57;8.47;;;3.87;;
8656;SDS011;4366;50.764;7.184;2024-01-25T11:09:03;14.97;;;4.00;;
8656;SDS011;4366;50.764;7.184;2024-01-25T11:14:10;6.97;;;3.13;;
8656;SDS011;4366;50.764;7.184;2024-01-25T11:19:17;9.30;;;3.13;;
8656;SDS011;4366;50.764;7.184;2024-01-25T11:24:21;10.63;;;3.37;;
8656;SDS011;4366;50.764;7.184;2024-01-25T11:29:23;8.20;;;3.50;;
8656;SDS011;4366;50.764;7.184;2024-01-25T11:34:26;11.37;;;3.30;;
8656;SDS011;4366;50.764;7.184;2024-01-25T11:39:27;7.83;;;3.40;;
8656;SDS011;4366;50.764;7.184;2024-01-25T11:44:29;7.53;;;2.70;;
8656;SDS011;4366;50.764;7.184;2024-01-25T11:49:31;9.93;;;3.10;;
8656;SDS011;4366;50.764;7.184;2024-01-25T11:54:33;6.17;;;2.97;;
8656;SDS011;4366;50.764;7.184;2024-01-25T11:59:36;6.40;;;3.00;;
8656;SDS011;4366;50.764;7.184;2024-01-25T12:04:39;6.77;;;3.10;;
8656;SDS011;4366;50.764;7.184;2024-01-25T12:09:41;7.17;;;2.53;;
8656;SDS011;4366;50.764;7.184;2024-01-25T12:14:43;8.17;;;2.60;;
8656;SDS011;4366;50.764;7.184;2024-01-25T12:19:45;7.77;;;2.60;;
8656;SDS011;4366;50.764;7.184;2024-01-25T12:24:47;11.10;;;2.60;;
8656;SDS011;4366;50.764;7.184;2024-01-25T12:30:00;6.33;;;2.00;;
8656;SDS011;4366;50.764;7.184;2024-01-25T12:35:02;4.70;;;2.30;;
8656;SDS011;4366;50.764;7.184;2024-01-25T12:40:08;4.37;;;2.10;;
8656;SDS011;4366;50.764;7.184;2024-01-25T12:45:10;4.70;;;2.40;;
8656;SDS011;4366;50.764;7.184;2024-01-25T12:50:12;6.83;;;3.00;;
8656;SDS011;4366;50.764;7.184;2024-01-25T12:55:15;4.80;;;2.37;;
8656;SDS011;4366;50.764;7.184;2024-01-25T13:00:17;5.50;;;2.60;;
8656;SDS011;4366;50.764;7.184;2024-01-25T13:05:19;6.90;;;2.30;;
8656;SDS011;4366;50.764;7.184;2024-01-25T13:10:22;7.53;;;2.93;;
8656;SDS011;4366;50.764;7.184;2024-01-25T13:15:27;4.57;;;2.10;;
8656;SDS011;4366;50.764;7.184;2024-01-25T13:20:32;7.47;;;2.17;;
8656;SDS011;4366;50.764;7.184;2024-01-25T13:25:35;5.87;;;2.47;;
8656;SDS011;4366;50.764;7.184;2024-01-25T13:30:37;5.03;;;2.40;;
8656;SDS011;4366;50.764;7.184;2024-01-25T13:35:39;4.97;;;2.50;;
8656;SDS011;4366;50.764;7.184;2024-01-25T13:40:42;7.07;;;2.30;;
8656;SDS011;4366;50.764;7.184;2024-01-25T13:45:43;8.83;;;2.50;;
8656;SDS011;4366;50.764;7.184;2024-01-25T13:50:48;3.67;;;2.47;;
8656;SDS011;4366;50.764;7.184;2024-01-25T13:55:50;6.40;;;2.33;;
8656;SDS011;4366;50.764;7.184;2024-01-25T14:00:52;6.80;;;3.40;;
8656;SDS011;4366;50.764;7.184;2024-01-25T14:05:55;4.30;;;2.43;;
8656;SDS011;4366;50.764;7.184;2024-01-25T14:11:02;6.03;;;2.03;;
8656;SDS011;4366;50.764;7.184;2024-01-25T14:16:05;6.20;;;2.67;;
8656;SDS011;4366;50.764;7.184;2024-01-25T14:21:07;6.23;;;2.60;;
8656;SDS011;4366;50.764;7.184;2024-01-25T14:26:09;7.03;;;2.30;;
8656;SDS011;4366;50.764;7.184;2024-01-25T14:31:12;5.30;;;2.40;;
8656;SDS011;4366;50.764;7.184;2024-01-25T14:36:16;5.87;;;2.33;;
8656;SDS011;4366;50.764;7.184;2024-01-25T14:41:18;8.47;;;2.37;;
8656;SDS011;4366;50.764;7.184;2024-01-25T14:46:20;9.23;;;2.30;;
8656;SDS011;4366;50.764;7.184;2024-01-25T14:51:24;4.63;;;2.67;;
8656;SDS011;4366;50.764;7.184;2024-01-25T14:56:26;5.83;;;2.57;;
8656;SDS011;4366;50.764;7.184;2024-01-25T15:01:28;6.10;;;2.83;;
8656;SDS011;4366;50.764;7.184;2024-01-25T15:06:32;8.53;;;3.07;;
8656;SDS011;4366;50.764;7.184;2024-01-25T15:11:34;7.23;;;2.87;;
8656;SDS011;4366;50.764;7.184;2024-01-25T15:16:37;8.30;;;3.10;;
8656;SDS011;4366;50.764;7.184;2024-01-25T15:21:39;9.73;;;2.73;;
8656;SDS011;4366;50.764;7.184;2024-01-25T15:26:41;9.80;;;2.73;;
8656;SDS011;4366;50.764;7.184;2024-01-25T15:31:42;8.27;;;3.00;;
8656;SDS011;4366;50.764;7.184;2024-01-25T15:36:45;8.20;;;2.53;;
8656;SDS011;4366;50.764;7.184;2024-01-25T15:41:47;8.10;;;3.37;;
8656;SDS011;4366;50.764;7.184;2024-01-25T15:46:52;5.87;;;2.57;;
8656;SDS011;4366;50.764;7.184;2024-01-25T15:51:54;8.90;;;3.20;;
8656;SDS011;4366;50.764;7.184;2024-01-25T15:56:55;6.40;;;2.60;;
8656;SDS011;4366;50.764;7.184;2024-01-25T16:01:57;9.53;;;2.93;;
8656;SDS011;4366;50.764;7.184;2024-01-25T16:06:59;5.53;;;2.43;;
8656;SDS011;4366;50.764;7.184;2024-01-25T16:12:01;6.27;;;2.60;;
8656;SDS011;4366;50.764;7.184;2024-01-25T16:17:03;4.23;;;2.40;;
8656;SDS011;4366;50.764;7.184;2024-01-25T16:22:05;5.77;;;2.73;;
8656;SDS011;4366;50.764;7.184;2024-01-25T16:27:07;6.30;;;2.63;;
8656;SDS011;4366;50.764;7.184;2024-01-25T16:32:09;5.80;;;2.63;;
8656;SDS011;4366;50.764;7.184;2024-01-25T16:37:11;4.77;;;2.40;;
8656;SDS011;4366;50.764;7.184;2024-01-25T16:42:13;7.97;;;2.73;;
8656;SDS011;4366;50.764;7.184;2024-01-25T16:47:15;5.07;;;2.83;;
8656;SDS011;4366;50.764;7.184;2024-01-25T16:52:17;9.00;;;2.40;;
8656;SDS011;4366;50.764;7.184;2024-01-25T16:57:19;4.60;;;2.20;;
8656;SDS011;4366;50.764;7.184;2024-01-25T17:02:21;7.40;;;2.80;;
8656;SDS011;4366;50.764;7.184;2024-01-25T17:07:23;7.00;;;2.70;;
8656;SDS011;4366;50.764;7.184;2024-01-25T17:12:25;7.83;;;2.20;;
8656;SDS011;4366;50.764;7.184;2024-01-25T17:17:27;4.60;;;2.53;;
8656;SDS011;4366;50.764;7.184;2024-01-25T17:22:29;6.53;;;2.47;;
8656;SDS011;4366;50.764;7.184;2024-01-25T17:27:31;9.77;;;3.00;;
8656;SDS011;4366;50.764;7.184;2024-01-25T17:32:33;6.20;;;2.93;;
8656;SDS011;4366;50.764;7.184;2024-01-25T17:37:35;9.40;;;2.33;;
8656;SDS011;4366;50.764;7.184;2024-01-25T17:42:37;9.27;;;3.07;;
8656;SDS011;4366;50.764;7.184;2024-01-25T17:47:39;2.20;;;1.80;;
8656;SDS011;4366;50.764;7.184;2024-01-25T17:52:41;6.17;;;2.30;;
8656;SDS011;4366;50.764;7.184;2024-01-25T17:57:43;7.03;;;2.83;;
8656;SDS011;4366;50.764;7.184;2024-01-25T18:02:45;4.20;;;2.30;;
8656;SDS011;4366;50.764;7.184;2024-01-25T18:07:47;6.10;;;2.67;;
8656;SDS011;4366;50.764;7.184;2024-01-25T18:12:49;4.77;;;2.87;;
8656;SDS011;4366;50.764;7.184;2024-01-25T18:17:51;9.43;;;3.80;;
8656;SDS011;4366;50.764;7.184;2024-01-25T18:22:53;8.57;;;3.20;;
8656;SDS011;4366;50.764;7.184;2024-01-25T18:27:55;7.17;;;2.67;;
8656;SDS011;4366;50.764;7.184;2024-01-25T18:32:58;7.40;;;3.40;;
8656;SDS011;4366;50.764;7.184;2024-01-25T18:38:00;6.43;;;2.70;;
8656;SDS011;4366;50.764;7.184;2024-01-25T18:43:02;7.07;;;2.90;;
8656;SDS011;4366;50.764;7.184;2024-01-25T18:48:04;9.33;;;2.80;;
8656;SDS011;4366;50.764;7.184;2024-01-25T18:53:08;5.37;;;2.70;;
8656;SDS011;4366;50.764;7.184;2024-01-25T18:58:11;9.57;;;2.47;;
8656;SDS011;4366;50.764;7.184;2024-01-25T19:03:13;5.70;;;2.80;;
8656;SDS011;4366;50.764;7.184;2024-01-25T19:08:15;7.53;;;2.50;;
8656;SDS011;4366;50.764;7.184;2024-01-25T19:13:18;5.43;;;2.73;;
8656;SDS011;4366;50.764;7.184;2024-01-25T19:18:20;5.37;;;2.77;;
8656;SDS011;4366;50.764;7.184;2024-01-25T19:23:28;3.20;;;2.00;;
8656;SDS011;4366;50.764;7.184;2024-01-25T19:28:30;2.53;;;2.00;;
8656;SDS011;4366;50.764;7.184;2024-01-25T19:33:32;9.00;;;2.80;;
8656;SDS011;4366;50.764;7.184;2024-01-25T19:38:35;2.97;;;2.50;;
8656;SDS011;4366;50.764;7.184;2024-01-25T19:43:42;4.87;;;3.03;;
8656;SDS011;4366;50.764;7.184;2024-01-25T19:48:44;8.80;;;4.47;;
8656;SDS011;4366;50.764;7.184;2024-01-25T19:53:46;6.43;;;3.70;;
8656;SDS011;4366;50.764;7.184;2024-01-25T19:58:51;7.03;;;3.73;;
8656;SDS011;4366;50.764;7.184;2024-01-25T20:03:54;8.03;;;4.03;;
8656;SDS011;4366;50.764;7.184;2024-01-25T20:09:01;8.97;;;3.77;;
8656;SDS011;4366;50.764;7.184;2024-01-25T20:14:03;5.93;;;3.13;;
8656;SDS011;4366;50.764;7.184;2024-01-25T20:19:05;7.40;;;3.83;;
8656;SDS011;4366;50.764;7.184;2024-01-25T20:24:07;7.20;;;3.70;;
8656;SDS011;4366;50.764;7.184;2024-01-25T20:29:09;5.00;;;3.00;;
8656;SDS011;4366;50.764;7.184;2024-01-25T20:34:11;6.23;;;3.13;;
8656;SDS011;4366;50.764;7.184;2024-01-25T20:39:13;4.77;;;3.17;;
8656;SDS011;4366;50.764;7.184;2024-01-25T20:44:15;3.13;;;2.83;;
8656;SDS011;4366;50.764;7.184;2024-01-25T20:49:18;5.10;;;3.27;;
8656;SDS011;4366;50.764;7.184;2024-01-25T20:54:20;3.27;;;2.97;;
8656;SDS011;4366;50.764;7.184;2024-01-25T20:59:22;5.20;;;4.23;;
8656;SDS011;4366;50.764;7.184;2024-01-25T21:04:24;3.50;;;2.90;;
8656;SDS011;4366;50.764;7.184;2024-01-25T21:09:26;4.07;;;3.20;;
8656;SDS011;4366;50.764;7.184;2024-01-25T21:14:29;4.63;;;3.60;;
8656;SDS011;4366;50.764;7.184;2024-01-25T21:19:31;4.43;;;3.57;;
8656;SDS011;4366;50.764;7.184;2024-01-25T21:24:34;4.43;;;2.70;;
8656;SDS011;4366;50.764;7.184;2024-01-25T21:29:35;3.67;;;3.00;;
8656;SDS011;4366;50.764;7.184;2024-01-25T21:34:38;2.97;;;2.70;;
8656;SDS011;4366;50.764;7.184;2024-01-25T21:39:40;2.77;;;2.57;;
8656;SDS011;4366;50.764;7.184;2024-01-25T21:44:42;2.57;;;2.37;;
8656;SDS011;4366;50.764;7.184;2024-01-25T21:49:44;2.57;;;2.37;;
8656;SDS011;4366;50.764;7.184;2024-01-25T21:54:46;2.63;;;2.43;;
8656;SDS011;4366;50.764;7.184;2024-01-25T21:59:49;2.80;;;2.60;;
8656;SDS011;4366;50.764;7.184;2024-01-25T22:04:51;2.73;;;2.53;;
8656;SDS011;4366;50.764;7.184;2024-01-25T22:09:55;2.30;;;2.20;;
8656;SDS011;4366;50.764;7.184;2024-01-25T22:14:58;3.67;;;2.27;;
8656;SDS011;4366;50.764;7.184;2024-01-25T22:19:59;2.20;;;2.00;;
8656;SDS011;4366;50.764;7.184;2024-01-25T22:25:01;2.20;;;2.10;;
8656;SDS011;4366;50.764;7.184;2024-01-25T22:30:04;2.60;;;2.40;;
8656;SDS011;4366;50.764;7.184;2024-01-25T22:35:06;2.37;;;1.97;;
8656;SDS011;4366;50.764;7.184;2024-01-25T22:40:10;3.00;;;2.30;;
8656;SDS011;4366;50.764;7.184;2024-01-25T22:45:12;2.73;;;2.10;;
8656;SDS011;4366;50.764;7.184;2024-01-25T22:50:14;2.20;;;2.00;;
8656;SDS011;4366;50.764;7.184;2024-01-25T22:55:17;2.77;;;2.00;;
8656;SDS011;4366;50.764;7.184;2024-01-25T23:00:19;1.90;;;1.80;;
8656;SDS011;4366;50.764;7.184;2024-01-25T23:05:24;2.20;;;2.00;;
8656;SDS011;4366;50.764;7.184;2024-01-25T23:10:26;1.93;;;1.83;;
8656;SDS011;4366;50.764;7.184;2024-01-25T23:15:29;2.13;;;2.00;;
8656;SDS011;4366;50.764;7.184;2024-01-25T23:20:31;1.50;;;1.40;;
8656;SDS011;4366;50.764;7.184;2024-01-25T23:25:33;1.63;;;1.60;;
8656;SDS011;4366;50.764;7.184;2024-01-25T23:30:35;2.10;;;1.90;;
8656;SDS011;4366;50.764;7.184;2024-01-25T23:35:37;1.83;;;1.73;;
8656;SDS011;4366;50.764;7.184;2024-01-25T23:40:42;2.40;;;1.80;;
8656;SDS011;4366;50.764;7.184;2024-01-25T23:45:44;2.37;;;2.10;;
8656;SDS011;4366;50.764;7.184;2024-01-25T23:50:46;2.30;;;2.03;;
8656;SDS011;4366;50.764;7.184;2024-01-25T23:55:49;2.63;;;2.20;;
